createdAt,value
2023-05-19T00:01:49.880Z,6.11
2023-05-19T00:04:17.092Z,6.13
2023-05-19T00:06:45.067Z,6.11
2023-05-19T00:09:12.568Z,6.07
2023-05-19T00:11:40.285Z,6.08
2023-05-19T00:14:09.516Z,6.09
2023-05-19T00:16:40.382Z,6.08
2023-05-19T00:19:10.038Z,6.08
2023-05-19T00:21:38.440Z,6.05
2023-05-19T00:24:05.614Z,6.04
2023-05-19T00:26:32.801Z,6.07
2023-05-19T00:28:59.677Z,6.05
2023-05-19T00:31:26.289Z,6.03
2023-05-19T00:33:52.864Z,6.00
2023-05-19T00:36:19.464Z,6.03
2023-05-19T00:38:46.368Z,5.96
2023-05-19T00:41:13.106Z,5.97
2023-05-19T00:43:39.791Z,6.00
2023-05-19T00:46:07.690Z,6.01
2023-05-19T00:48:34.432Z,5.93
2023-05-19T00:51:04.922Z,5.95
2023-05-19T00:53:33.760Z,5.90
2023-05-19T00:56:01.245Z,5.86
2023-05-19T00:58:30.300Z,5.80
2023-05-19T01:01:05.320Z,5.75
2023-05-19T01:03:35.719Z,5.72
2023-05-19T01:06:05.787Z,5.67
2023-05-19T01:08:33.670Z,5.61
2023-05-19T01:11:00.374Z,5.53
2023-05-19T01:13:31.020Z,5.50
2023-05-19T01:16:09.008Z,5.53
2023-05-19T01:18:47.805Z,5.44
2023-05-19T01:21:23.617Z,5.43
2023-05-19T01:24:02.237Z,5.38
2023-05-19T01:27:18.249Z,5.33
2023-05-19T01:30:10.728Z,5.31
2023-05-19T01:32:40.803Z,5.27
2023-05-19T01:35:09.712Z,5.27
2023-05-19T01:37:38.917Z,5.22
2023-05-19T01:40:09.978Z,5.27
2023-05-19T01:42:39.876Z,5.26
2023-05-19T01:45:10.411Z,5.27
2023-05-19T01:47:39.864Z,5.29
2023-05-19T01:50:07.333Z,5.28
2023-05-19T01:52:34.173Z,5.28
2023-05-19T01:55:00.886Z,5.31
2023-05-19T01:57:39.646Z,5.27
2023-05-19T02:00:23.857Z,5.25
2023-05-19T02:03:16.731Z,5.20
2023-05-19T02:05:59.444Z,5.18
2023-05-19T02:08:55.398Z,5.18
2023-05-19T02:11:25.462Z,5.19
2023-05-19T02:13:56.252Z,5.19
2023-05-19T02:16:28.527Z,5.19
2023-05-19T02:18:56.473Z,5.17
2023-05-19T02:21:23.057Z,5.20
2023-05-19T02:23:50.990Z,5.23
2023-05-19T02:26:17.525Z,5.22
2023-05-19T02:28:44.428Z,5.22
2023-05-19T02:31:11.146Z,5.26
2023-05-19T02:33:37.832Z,5.26
2023-05-19T02:36:05.222Z,5.25
2023-05-19T02:38:32.636Z,5.30
2023-05-19T02:40:59.288Z,5.28
2023-05-19T02:43:25.835Z,5.29
2023-05-19T02:45:52.420Z,5.29
2023-05-19T02:48:19.003Z,5.23
2023-05-19T02:50:45.688Z,5.18
2023-05-19T02:53:12.242Z,5.12
2023-05-19T02:55:38.809Z,5.09
2023-05-19T02:58:05.386Z,5.18
2023-05-19T03:00:32.122Z,5.21
2023-05-19T03:03:02.702Z,5.21
2023-05-19T03:05:30.424Z,5.24
2023-05-19T03:07:57.116Z,5.22
2023-05-19T03:10:23.670Z,5.25
2023-05-19T03:12:50.996Z,5.23
2023-05-19T03:15:18.817Z,5.21
2023-05-19T03:17:45.608Z,5.20
2023-05-19T03:20:12.529Z,5.15
2023-05-19T03:22:39.178Z,5.11
2023-05-19T03:25:05.994Z,5.11
2023-05-19T03:27:32.566Z,5.07
2023-05-19T03:29:59.102Z,5.07
2023-05-19T03:32:25.874Z,5.00
2023-05-19T03:34:52.694Z,4.98
2023-05-19T03:37:19.341Z,4.94
2023-05-19T03:39:45.908Z,4.88
2023-05-19T03:42:12.459Z,4.87
2023-05-19T03:44:39.472Z,4.93
2023-05-19T03:47:06.318Z,4.88
2023-05-19T03:49:32.853Z,4.87
2023-05-19T03:51:59.385Z,4.88
2023-05-19T03:54:26.227Z,4.85
2023-05-19T03:56:52.718Z,4.84
2023-05-19T03:59:19.291Z,4.83
2023-05-19T04:01:46.542Z,4.87
2023-05-19T04:04:13.096Z,4.84
2023-05-19T04:06:39.682Z,4.89
2023-05-19T04:09:13.492Z,4.97
2023-05-19T04:11:40.732Z,4.97
2023-05-19T04:14:07.825Z,5.03
2023-05-19T04:16:34.874Z,5.05
2023-05-19T04:19:01.865Z,5.09
2023-05-19T04:21:28.510Z,5.18
2023-05-19T04:23:55.454Z,5.28
2023-05-19T04:26:22.764Z,5.31
2023-05-19T04:28:49.600Z,5.32
2023-05-19T04:31:16.181Z,5.38
2023-05-19T04:33:42.944Z,5.42
2023-05-19T04:36:11.542Z,5.47
2023-05-19T04:38:39.881Z,5.50
2023-05-19T04:41:10.721Z,5.56
2023-05-19T04:43:41.607Z,5.67
2023-05-19T04:46:13.215Z,5.83
2023-05-19T04:48:41.111Z,5.90
2023-05-19T04:51:07.710Z,5.99
2023-05-19T04:53:34.447Z,6.08
2023-05-19T04:56:02.171Z,6.17
2023-05-19T04:58:28.725Z,6.29
2023-05-19T05:00:58.712Z,6.39
2023-05-19T05:03:26.434Z,6.50
2023-05-19T05:05:53.249Z,6.62
2023-05-19T05:08:23.280Z,6.74
2023-05-19T05:10:52.645Z,7.03
2023-05-19T05:13:22.410Z,7.43
2023-05-19T05:15:49.334Z,7.76
2023-05-19T05:18:16.335Z,8.15
2023-05-19T05:20:43.900Z,8.41
2023-05-19T05:23:14.590Z,8.69
2023-05-19T05:25:42.151Z,8.87
2023-05-19T05:28:09.199Z,9.12
2023-05-19T05:30:36.541Z,9.39
2023-05-19T05:33:03.359Z,9.64
2023-05-19T05:35:30.099Z,9.84
2023-05-19T05:37:56.789Z,10.07
2023-05-19T05:40:23.410Z,10.35
2023-05-19T05:42:50.000Z,10.71
2023-05-19T05:45:16.714Z,11.12
2023-05-19T05:47:43.606Z,11.73
2023-05-19T05:50:10.816Z,12.27
2023-05-19T05:52:38.312Z,12.63
2023-05-19T05:55:05.705Z,12.87
2023-05-19T05:57:35.326Z,13.23
2023-05-19T06:00:02.351Z,13.48
2023-05-19T06:02:30.015Z,13.70
2023-05-19T06:04:56.944Z,13.86
2023-05-19T06:07:24.396Z,13.90
2023-05-19T06:09:51.148Z,13.88
2023-05-19T06:12:18.068Z,14.10
2023-05-19T06:14:44.734Z,14.12
2023-05-19T06:17:11.508Z,14.18
2023-05-19T06:19:38.037Z,14.20
2023-05-19T06:22:04.638Z,14.09
2023-05-19T06:24:31.254Z,14.01
2023-05-19T06:26:57.938Z,14.10
2023-05-19T06:29:24.484Z,14.32
2023-05-19T06:31:51.399Z,14.54
2023-05-19T06:34:18.075Z,14.98
2023-05-19T06:36:44.729Z,15.09
2023-05-19T06:39:11.275Z,15.38
2023-05-19T06:41:37.855Z,15.69
2023-05-19T06:44:06.800Z,16.08
2023-05-19T06:46:33.421Z,16.20
2023-05-19T06:49:00.142Z,16.31
2023-05-19T06:51:26.965Z,16.33
2023-05-19T06:53:53.493Z,16.71
2023-05-19T06:56:20.091Z,16.85
2023-05-19T06:58:46.707Z,16.70
2023-05-19T07:01:13.214Z,16.62
2023-05-19T07:03:39.840Z,16.73
2023-05-19T07:06:08.096Z,16.78
2023-05-19T07:08:37.122Z,17.30
2023-05-19T07:11:03.768Z,17.60
2023-05-19T07:13:30.493Z,17.84
2023-05-19T07:15:57.147Z,17.57
2023-05-19T07:18:25.618Z,17.72
2023-05-19T07:20:53.737Z,18.09
2023-05-19T07:23:20.464Z,18.35
2023-05-19T07:25:47.077Z,18.69
2023-05-19T07:28:13.798Z,18.48
2023-05-19T07:30:40.455Z,18.02
2023-05-19T07:33:07.229Z,18.57
2023-05-19T07:35:33.969Z,18.78
2023-05-19T07:38:00.762Z,18.94
2023-05-19T07:40:27.331Z,18.65
2023-05-19T07:42:53.900Z,18.83
2023-05-19T07:45:20.506Z,19.21
2023-05-19T07:47:47.230Z,19.16
2023-05-19T07:50:14.049Z,19.16
2023-05-19T07:52:40.745Z,19.33
2023-05-19T07:55:07.313Z,19.53
2023-05-19T07:57:33.869Z,19.39
2023-05-19T08:00:00.467Z,19.79
2023-05-19T08:02:27.464Z,20.17
2023-05-19T08:04:54.259Z,19.59
2023-05-19T08:07:20.980Z,19.82
2023-05-19T08:09:47.508Z,20.09
2023-05-19T08:12:14.369Z,20.61
2023-05-19T08:14:41.255Z,20.18
2023-05-19T08:17:07.899Z,20.19
2023-05-19T08:19:34.438Z,20.48
2023-05-19T08:22:01.353Z,20.72
2023-05-19T08:24:32.802Z,20.84
2023-05-19T08:26:59.545Z,21.03
2023-05-19T08:29:26.291Z,20.64
2023-05-19T08:31:53.510Z,21.08
2023-05-19T08:34:20.287Z,21.21
2023-05-19T08:36:47.703Z,21.46
2023-05-19T08:39:16.207Z,21.46
2023-05-19T08:41:42.923Z,21.35
2023-05-19T08:44:10.118Z,21.50
2023-05-19T08:46:37.066Z,21.96
2023-05-19T08:49:09.318Z,21.63
2023-05-19T08:52:05.517Z,21.22
2023-05-19T08:54:45.906Z,21.38
2023-05-19T08:57:13.615Z,21.56
2023-05-19T08:59:41.558Z,21.63
2023-05-19T09:02:11.417Z,21.80
2023-05-19T09:04:39.736Z,21.67
2023-05-19T09:07:06.631Z,21.58
2023-05-19T09:09:33.197Z,21.66
2023-05-19T09:11:59.860Z,21.65
2023-05-19T09:14:26.871Z,21.41
2023-05-19T09:16:54.139Z,21.62
2023-05-19T09:19:21.318Z,21.32
2023-05-19T09:22:00.222Z,21.77
2023-05-19T09:24:27.257Z,21.40
2023-05-19T09:26:57.927Z,21.83
2023-05-19T09:29:26.590Z,22.26
2023-05-19T09:32:00.527Z,22.46
2023-05-19T09:34:27.890Z,22.63
2023-05-19T09:36:54.537Z,22.51
2023-05-19T09:39:23.521Z,22.03
2023-05-19T09:41:54.842Z,21.76
2023-05-19T09:44:21.356Z,22.42
2023-05-19T09:46:49.370Z,22.13
2023-05-19T09:49:24.094Z,21.95
2023-05-19T09:52:03.809Z,21.97
2023-05-19T09:54:32.510Z,22.57
2023-05-19T09:57:00.961Z,22.76
2023-05-19T09:59:32.045Z,22.75
2023-05-19T10:02:00.735Z,22.66
2023-05-19T10:04:28.911Z,22.71
2023-05-19T10:06:59.907Z,22.66
2023-05-19T10:09:28.896Z,22.34
2023-05-19T10:11:59.203Z,22.27
2023-05-19T10:14:29.956Z,22.19
2023-05-19T10:16:58.942Z,22.65
2023-05-19T10:19:27.779Z,22.68
2023-05-19T10:21:55.235Z,22.42
2023-05-19T10:24:22.021Z,22.41
2023-05-19T10:26:57.666Z,23.05
2023-05-19T10:29:28.730Z,23.15
2023-05-19T10:31:59.157Z,23.01
2023-05-19T10:35:10.605Z,23.13
2023-05-19T10:37:59.142Z,23.06
2023-05-19T10:40:43.549Z,23.05
2023-05-19T10:43:26.227Z,23.09
2023-05-19T10:45:55.537Z,23.03
2023-05-19T10:48:23.209Z,22.89
2023-05-19T10:50:54.841Z,22.99
2023-05-19T10:53:22.762Z,23.17
2023-05-19T10:55:53.417Z,23.10
2023-05-19T10:58:49.789Z,22.83
2023-05-19T11:01:18.287Z,22.43
2023-05-19T11:03:57.373Z,22.62
2023-05-19T11:06:36.012Z,22.56
2023-05-19T11:09:15.910Z,22.55
2023-05-19T11:11:50.002Z,22.45
2023-05-19T11:14:26.572Z,22.74
2023-05-19T11:16:57.564Z,22.85
2023-05-19T11:19:31.514Z,23.09
2023-05-19T11:22:11.105Z,22.90
2023-05-19T11:24:44.598Z,23.01
2023-05-19T11:27:20.033Z,22.94
2023-05-19T11:29:48.429Z,22.43
2023-05-19T11:32:16.099Z,22.50
2023-05-19T11:34:44.697Z,22.35
2023-05-19T11:37:12.068Z,23.13
2023-05-19T11:39:39.737Z,22.63
2023-05-19T11:42:08.718Z,23.02
2023-05-19T11:44:35.238Z,23.03
2023-05-19T11:47:02.136Z,22.91
2023-05-19T11:49:29.606Z,22.65
2023-05-19T11:51:56.684Z,22.66
2023-05-19T11:54:30.489Z,22.32
2023-05-19T11:57:00.135Z,22.52
2023-05-19T11:59:36.006Z,22.50
2023-05-19T12:02:16.061Z,22.42
2023-05-19T12:04:43.075Z,22.75
2023-05-19T12:07:12.558Z,22.64
2023-05-19T12:09:39.670Z,22.66
2023-05-19T12:12:06.710Z,23.24
2023-05-19T12:14:34.522Z,22.84
2023-05-19T12:17:12.112Z,22.93
2023-05-19T12:19:44.598Z,22.16
2023-05-19T12:22:11.844Z,22.70
2023-05-19T12:24:39.245Z,22.61
2023-05-19T12:27:17.308Z,22.75
2023-05-19T12:29:49.170Z,22.82
2023-05-19T12:32:15.754Z,22.37
2023-05-19T12:34:42.751Z,21.84
2023-05-19T12:37:11.296Z,22.32
2023-05-19T12:39:38.396Z,22.32
2023-05-19T12:42:08.543Z,21.62
2023-05-19T12:44:52.817Z,21.57
2023-05-19T12:47:20.638Z,21.06
2023-05-19T12:49:57.714Z,21.30
2023-05-19T12:52:24.523Z,22.20
2023-05-19T12:55:07.773Z,22.64
2023-05-19T12:57:35.606Z,22.98
2023-05-19T13:00:11.709Z,22.66
2023-05-19T13:02:55.377Z,22.40
2023-05-19T13:05:22.931Z,22.10
2023-05-19T13:08:00.043Z,22.14
2023-05-19T13:10:28.329Z,22.03
2023-05-19T13:12:55.833Z,22.36
2023-05-19T13:15:26.475Z,22.04
2023-05-19T13:17:54.000Z,22.25
2023-05-19T13:20:22.116Z,21.88
2023-05-19T13:22:49.238Z,22.00
2023-05-19T13:25:16.999Z,21.64
2023-05-19T13:27:48.673Z,21.81
2023-05-19T13:30:16.390Z,21.59
2023-05-19T13:32:42.994Z,21.74
2023-05-19T13:35:10.817Z,21.52
2023-05-19T13:37:37.870Z,21.90
2023-05-19T13:40:05.047Z,22.10
2023-05-19T13:42:35.173Z,21.57
2023-05-19T13:45:02.457Z,21.66
2023-05-19T13:47:29.582Z,21.90
2023-05-19T13:49:56.836Z,21.46
2023-05-19T13:52:23.610Z,21.36
2023-05-19T13:54:50.211Z,20.93
2023-05-19T13:57:16.986Z,20.74
2023-05-19T13:59:57.617Z,20.79
2023-05-19T14:02:28.284Z,21.14
2023-05-19T14:04:56.341Z,21.31
2023-05-19T14:07:22.853Z,21.63
2023-05-19T14:09:51.322Z,21.79
2023-05-19T14:12:18.661Z,21.62
2023-05-19T14:14:48.340Z,21.41
2023-05-19T14:17:17.182Z,21.56
2023-05-19T14:19:43.813Z,21.74
2023-05-19T14:22:10.565Z,21.89
2023-05-19T14:24:37.638Z,21.84
2023-05-19T14:27:04.341Z,21.14
2023-05-19T14:29:34.155Z,20.88
2023-05-19T14:32:01.085Z,20.97
2023-05-19T14:34:27.739Z,21.15
2023-05-19T14:36:54.333Z,21.32
2023-05-19T14:39:21.135Z,21.42
2023-05-19T14:41:49.485Z,21.38
2023-05-19T14:44:16.080Z,21.44
2023-05-19T14:46:42.737Z,21.25
2023-05-19T14:49:09.375Z,21.26
2023-05-19T14:51:36.124Z,21.13
2023-05-19T14:54:02.709Z,21.00
2023-05-19T14:56:29.316Z,20.68
2023-05-19T14:58:56.467Z,20.50
2023-05-19T15:01:23.436Z,20.47
2023-05-19T15:03:50.515Z,20.36
2023-05-19T15:06:17.157Z,20.56
2023-05-19T15:08:43.850Z,20.55
2023-05-19T15:11:10.457Z,20.51
2023-05-19T15:13:37.033Z,20.65
2023-05-19T15:16:16.114Z,20.81
2023-05-19T15:18:44.634Z,20.75
2023-05-19T15:21:11.270Z,20.72
2023-05-19T15:23:37.841Z,20.46
2023-05-19T15:26:04.590Z,20.34
2023-05-19T15:28:31.194Z,20.24
2023-05-19T15:30:57.769Z,20.34
2023-05-19T15:33:24.481Z,20.15
2023-05-19T15:35:52.268Z,20.22
2023-05-19T15:38:21.382Z,20.24
2023-05-19T15:40:48.111Z,20.33
2023-05-19T15:43:14.762Z,20.51
2023-05-19T15:45:41.691Z,20.46
2023-05-19T15:48:08.511Z,20.40
2023-05-19T15:50:35.652Z,20.47
2023-05-19T15:53:02.516Z,20.20
2023-05-19T15:55:29.197Z,19.90
2023-05-19T15:57:55.991Z,19.96
2023-05-19T16:00:22.625Z,19.77
2023-05-19T16:02:49.342Z,19.70
2023-05-19T16:05:16.766Z,19.71
2023-05-19T16:07:43.446Z,19.63
2023-05-19T16:10:10.207Z,19.56
2023-05-19T16:12:37.495Z,19.24
2023-05-19T16:15:04.346Z,19.03
2023-05-19T16:17:30.943Z,19.02
2023-05-19T16:19:57.517Z,19.00
2023-05-19T16:22:25.017Z,18.86
2023-05-19T16:24:52.298Z,18.76
2023-05-19T16:27:19.174Z,18.82
2023-05-19T16:29:46.053Z,18.93
2023-05-19T16:32:13.115Z,18.87
2023-05-19T16:34:39.897Z,18.83
2023-05-19T16:37:09.383Z,18.76
2023-05-19T16:39:37.229Z,18.59
2023-05-19T16:42:04.715Z,18.45
2023-05-19T16:44:31.492Z,18.49
2023-05-19T16:46:58.074Z,18.34
2023-05-19T16:49:24.711Z,18.27
2023-05-19T16:51:52.997Z,18.22
2023-05-19T16:54:19.822Z,18.06
2023-05-19T16:56:46.457Z,17.94
2023-05-19T16:59:13.215Z,17.68
2023-05-19T17:01:39.874Z,17.47
2023-05-19T17:04:06.533Z,17.42
2023-05-19T17:06:33.220Z,17.24
2023-05-19T17:08:59.885Z,17.19
2023-05-19T17:11:27.226Z,17.25
2023-05-19T17:13:53.822Z,17.17
2023-05-19T17:16:20.402Z,17.08
2023-05-19T17:18:48.120Z,16.86
2023-05-19T17:21:14.765Z,16.80
2023-05-19T17:23:41.810Z,16.74
2023-05-19T17:26:09.018Z,16.64
2023-05-19T17:28:35.762Z,16.51
2023-05-19T17:31:10.098Z,16.36
2023-05-19T17:33:36.883Z,16.27
2023-05-19T17:36:04.477Z,16.22
2023-05-19T17:38:32.331Z,16.20
2023-05-19T17:41:02.203Z,16.09
2023-05-19T17:43:29.407Z,15.94
2023-05-19T17:45:56.818Z,15.82
2023-05-19T17:48:25.910Z,15.71
2023-05-19T17:50:52.703Z,15.53
2023-05-19T17:53:19.711Z,15.46
2023-05-19T17:55:51.232Z,15.36
2023-05-19T17:58:19.310Z,15.26
2023-05-19T18:00:46.253Z,15.24
2023-05-19T18:03:13.242Z,15.15
2023-05-19T18:05:40.510Z,15.09
2023-05-19T18:08:09.382Z,15.02
2023-05-19T18:10:37.857Z,14.97
2023-05-19T18:13:05.605Z,14.87
2023-05-19T18:15:32.160Z,14.80
2023-05-19T18:17:58.817Z,14.80
2023-05-19T18:20:25.541Z,14.71
2023-05-19T18:22:52.165Z,14.75
2023-05-19T18:25:20.240Z,14.71
2023-05-19T18:27:47.494Z,14.65
2023-05-19T18:30:14.085Z,14.60
2023-05-19T18:32:40.983Z,14.53
2023-05-19T18:35:08.517Z,14.46
2023-05-19T18:37:35.888Z,14.36
2023-05-19T18:40:02.524Z,14.25
2023-05-19T18:42:29.202Z,14.20
2023-05-19T18:44:55.872Z,14.13
2023-05-19T18:47:23.122Z,14.04
2023-05-19T18:49:50.173Z,13.99
2023-05-19T18:52:16.818Z,13.91
2023-05-19T18:54:45.922Z,13.85
2023-05-19T18:57:12.904Z,13.80
2023-05-19T18:59:39.532Z,13.74
2023-05-19T19:02:07.009Z,13.66
2023-05-19T19:04:33.852Z,13.65
2023-05-19T19:07:01.168Z,13.51
2023-05-19T19:09:27.938Z,13.48
2023-05-19T19:11:54.519Z,13.43
2023-05-19T19:14:21.527Z,13.31
2023-05-19T19:16:48.127Z,13.26
2023-05-19T19:19:14.796Z,13.18
2023-05-19T19:21:42.056Z,13.07
2023-05-19T19:24:08.617Z,12.96
2023-05-19T19:26:35.306Z,12.92
2023-05-19T19:29:02.124Z,12.80
2023-05-19T19:31:28.850Z,12.74
2023-05-19T19:33:58.822Z,12.67
2023-05-19T19:36:26.480Z,12.53
2023-05-19T19:38:53.053Z,12.47
2023-05-19T19:41:20.090Z,12.41
2023-05-19T19:43:46.710Z,12.33
2023-05-19T19:46:13.311Z,12.28
2023-05-19T19:48:40.131Z,12.20
2023-05-19T19:51:06.705Z,12.22
2023-05-19T19:53:33.298Z,12.13
2023-05-19T19:56:01.695Z,12.07
2023-05-19T19:58:29.167Z,12.04
2023-05-19T20:00:57.514Z,12.02
2023-05-19T20:03:24.592Z,11.95
2023-05-19T20:05:51.549Z,11.88
2023-05-19T20:08:20.046Z,11.88
2023-05-19T20:10:48.358Z,11.79
2023-05-19T20:13:15.786Z,11.78
2023-05-19T20:15:43.420Z,11.74
2023-05-19T20:18:10.988Z,11.71
2023-05-19T20:20:41.045Z,11.66
2023-05-19T20:23:08.911Z,11.63
2023-05-19T20:25:54.381Z,11.55
2023-05-19T20:28:26.341Z,11.49
2023-05-19T20:30:52.896Z,11.42
2023-05-19T20:33:19.509Z,11.37
2023-05-19T20:35:46.454Z,11.31
2023-05-19T20:38:13.032Z,11.28
2023-05-19T20:40:40.040Z,11.21
2023-05-19T20:43:06.591Z,11.15
2023-05-19T20:45:33.518Z,11.08
2023-05-19T20:48:00.957Z,10.98
2023-05-19T20:50:27.530Z,10.90
2023-05-19T20:52:54.353Z,10.85
2023-05-19T20:55:21.060Z,10.79
2023-05-19T20:57:47.611Z,10.73
2023-05-19T21:00:14.546Z,10.70
2023-05-19T21:02:41.130Z,10.71
2023-05-19T21:05:08.211Z,10.76
2023-05-19T21:07:35.078Z,10.77
2023-05-19T21:10:01.678Z,10.79
2023-05-19T21:12:33.952Z,10.77
2023-05-19T21:15:01.707Z,10.69
2023-05-19T21:17:28.571Z,10.76
2023-05-19T21:19:59.422Z,10.62
2023-05-19T21:22:26.953Z,10.60
2023-05-19T21:24:54.756Z,10.52
2023-05-19T21:27:21.634Z,10.43
2023-05-19T21:29:52.967Z,10.37
2023-05-19T21:32:20.718Z,10.28
2023-05-19T21:34:47.560Z,10.30
2023-05-19T21:37:14.436Z,10.30
2023-05-19T21:39:40.998Z,10.27
2023-05-19T21:42:07.546Z,10.28
2023-05-19T21:44:34.198Z,10.22
2023-05-19T21:47:00.991Z,10.19
2023-05-19T21:49:27.594Z,10.06
2023-05-19T21:51:54.147Z,10.03
2023-05-19T21:54:20.666Z,10.11
2023-05-19T21:56:47.183Z,9.99
2023-05-19T21:59:13.760Z,9.97
2023-05-19T22:01:40.832Z,9.98
2023-05-19T22:04:07.825Z,9.96
2023-05-19T22:06:34.488Z,9.91
2023-05-19T22:09:02.559Z,9.93
2023-05-19T22:11:29.185Z,9.87
2023-05-19T22:13:55.946Z,9.87
2023-05-19T22:16:22.781Z,9.92
2023-05-19T22:18:49.652Z,9.96
2023-05-19T22:21:16.292Z,10.00
2023-05-19T22:23:43.788Z,9.95
2023-05-19T22:26:10.703Z,9.91
2023-05-19T22:28:37.260Z,9.94
2023-05-19T22:31:04.376Z,9.89
2023-05-19T22:33:31.045Z,9.97
2023-05-19T22:35:58.095Z,9.95
2023-05-19T22:38:24.691Z,9.99
2023-05-19T22:40:51.290Z,9.94
2023-05-19T22:43:17.879Z,9.94
2023-05-19T22:45:44.622Z,9.96
2023-05-19T22:48:11.656Z,10.04
2023-05-19T22:50:38.338Z,10.10
2023-05-19T22:53:04.917Z,10.16
2023-05-19T22:55:31.725Z,10.28
2023-05-19T22:57:58.514Z,10.29
2023-05-19T23:00:25.253Z,10.56
2023-05-19T23:02:51.895Z,10.61
2023-05-19T23:05:18.507Z,10.81
2023-05-19T23:07:45.115Z,10.81
2023-05-19T23:10:11.840Z,10.90
2023-05-19T23:12:39.953Z,10.95
2023-05-19T23:15:07.971Z,11.09
2023-05-19T23:17:34.645Z,10.96
2023-05-19T23:20:01.231Z,10.92
2023-05-19T23:22:27.929Z,11.00
2023-05-19T23:24:54.470Z,11.10
2023-05-19T23:27:21.003Z,11.26
2023-05-19T23:29:49.087Z,11.34
2023-05-19T23:32:16.092Z,11.29
2023-05-19T23:34:42.769Z,11.24
2023-05-19T23:37:09.315Z,11.26
2023-05-19T23:39:38.188Z,11.48
2023-05-19T23:42:05.751Z,11.59
2023-05-19T23:44:32.375Z,11.69
2023-05-19T23:46:59.047Z,11.80
2023-05-19T23:49:25.656Z,11.89
2023-05-19T23:51:52.392Z,11.97
2023-05-19T23:54:18.971Z,11.96
2023-05-19T23:56:45.666Z,12.11
2023-05-19T23:59:12.424Z,12.14
